Doss, Missouri
Current Conditions -  °F | °C
As of 8:58 PM on Friday 21 Nov 2014 (Local Time) from KTBN Reporting Station
Overcast Overcast  
Wind Chill: 36°   Ceiling: 700
Heat Index: 42°   Visibility: 10mi
Dew Point: 40°   Wind: 9mph
Humidity: 95%   Direction: 160°SSE
Pressure: 30.2"   Gusts: 18mph
Location:  37.5023°N, 91.4546°W
Report Text: KTBN 220258Z AUTO 16008G16KT 10SM OVC007 05/05 A3020 RMK AO2 SLP238 T00530046 55001
Loading
Personal Weather Stations






























Interactive Weather Map New forecast layout! Learn more

10-Day Weather Forecast

Advertisements
Track Severe Weather on mobile